sensor_id;sensor_type;location;lat;lon;timestamp;temperature;humidity
21298;DHT22;10808;48.010;11.326;2023-09-18T00:00:57;19.00;99.90
21298;DHT22;10808;48.010;11.326;2023-09-18T00:03:23;18.90;99.90
21298;DHT22;10808;48.010;11.326;2023-09-18T00:05:53;18.90;99.90
21298;DHT22;10808;48.010;11.326;2023-09-18T00:08:19;18.90;99.90
21298;DHT22;10808;48.010;11.326;2023-09-18T00:10:51;18.90;99.90
21298;DHT22;10808;48.010;11.326;2023-09-18T00:13:18;18.90;99.90
21298;DHT22;10808;48.010;11.326;2023-09-18T00:15:44;18.80;99.90
21298;DHT22;10808;48.010;11.326;2023-09-18T00:18:16;18.80;99.90
21298;DHT22;10808;48.010;11.326;2023-09-18T00:20:42;18.80;99.90
21298;DHT22;10808;48.010;11.326;2023-09-18T00:23:09;18.80;99.90
21298;DHT22;10808;48.010;11.326;2023-09-18T00:25:36;18.70;99.90
21298;DHT22;10808;48.010;11.326;2023-09-18T00:28:03;18.70;99.90
21298;DHT22;10808;48.010;11.326;2023-09-18T00:30:34;18.70;99.90
21298;DHT22;10808;48.010;11.326;2023-09-18T00:33:00;18.70;99.90
21298;DHT22;10808;48.010;11.326;2023-09-18T00:35:26;18.70;99.90
21298;DHT22;10808;48.010;11.326;2023-09-18T00:37:52;18.70;99.90
21298;DHT22;10808;48.010;11.326;2023-09-18T00:40:19;18.60;99.90
21298;DHT22;10808;48.010;11.326;2023-09-18T00:42:45;18.60;99.90
21298;DHT22;10808;48.010;11.326;2023-09-18T00:45:11;18.60;99.90
21298;DHT22;10808;48.010;11.326;2023-09-18T00:47:37;18.60;99.90
21298;DHT22;10808;48.010;11.326;2023-09-18T00:50:06;18.60;99.90
21298;DHT22;10808;48.010;11.326;2023-09-18T00:52:33;18.60;99.90
21298;DHT22;10808;48.010;11.326;2023-09-18T00:55:00;18.60;99.90
21298;DHT22;10808;48.010;11.326;2023-09-18T00:57:28;18.60;99.90
21298;DHT22;10808;48.010;11.326;2023-09-18T00:59:55;18.60;99.90
21298;DHT22;10808;48.010;11.326;2023-09-18T01:02:21;18.50;99.90
21298;DHT22;10808;48.010;11.326;2023-09-18T01:04:48;18.50;99.90
21298;DHT22;10808;48.010;11.326;2023-09-18T01:07:15;18.50;99.90
21298;DHT22;10808;48.010;11.326;2023-09-18T01:09:41;18.50;99.90
21298;DHT22;10808;48.010;11.326;2023-09-18T01:12:19;18.50;99.90
21298;DHT22;10808;48.010;11.326;2023-09-18T01:17:28;18.40;99.90
21298;DHT22;10808;48.010;11.326;2023-09-18T01:19:54;18.40;99.90
21298;DHT22;10808;48.010;11.326;2023-09-18T01:22:21;18.40;99.90
21298;DHT22;10808;48.010;11.326;2023-09-18T01:24:48;18.40;99.90
21298;DHT22;10808;48.010;11.326;2023-09-18T01:27:16;18.40;99.90
21298;DHT22;10808;48.010;11.326;2023-09-18T01:29:46;18.30;99.90
21298;DHT22;10808;48.010;11.326;2023-09-18T01:32:13;18.30;99.90
21298;DHT22;10808;48.010;11.326;2023-09-18T01:34:47;18.30;99.90
21298;DHT22;10808;48.010;11.326;2023-09-18T01:37:16;18.30;99.90
21298;DHT22;10808;48.010;11.326;2023-09-18T01:39:45;18.20;99.90
21298;DHT22;10808;48.010;11.326;2023-09-18T01:42:11;18.20;99.90
21298;DHT22;10808;48.010;11.326;2023-09-18T01:44:37;18.20;99.90
21298;DHT22;10808;48.010;11.326;2023-09-18T01:47:11;18.20;99.90
21298;DHT22;10808;48.010;11.326;2023-09-18T01:49:39;18.10;99.90
21298;DHT22;10808;48.010;11.326;2023-09-18T01:52:07;18.20;99.90
21298;DHT22;10808;48.010;11.326;2023-09-18T01:54:34;18.10;99.90
21298;DHT22;10808;48.010;11.326;2023-09-18T01:57:00;18.10;99.90
21298;DHT22;10808;48.010;11.326;2023-09-18T01:59:27;18.10;99.90
21298;DHT22;10808;48.010;11.326;2023-09-18T02:01:59;18.10;99.90
21298;DHT22;10808;48.010;11.326;2023-09-18T02:04:26;18.10;99.90
21298;DHT22;10808;48.010;11.326;2023-09-18T02:06:53;18.00;99.90
21298;DHT22;10808;48.010;11.326;2023-09-18T02:09:19;18.00;99.90
21298;DHT22;10808;48.010;11.326;2023-09-18T02:11:47;18.00;99.90
21298;DHT22;10808;48.010;11.326;2023-09-18T02:14:13;18.00;99.90
21298;DHT22;10808;48.010;11.326;2023-09-18T02:16:41;18.00;99.90
21298;DHT22;10808;48.010;11.326;2023-09-18T02:19:09;17.90;99.90
21298;DHT22;10808;48.010;11.326;2023-09-18T02:21:36;17.90;99.90
21298;DHT22;10808;48.010;11.326;2023-09-18T02:24:03;17.90;99.90
21298;DHT22;10808;48.010;11.326;2023-09-18T02:26:30;17.80;99.90
21298;DHT22;10808;48.010;11.326;2023-09-18T02:28:59;17.80;99.90
21298;DHT22;10808;48.010;11.326;2023-09-18T02:31:26;17.80;99.90
21298;DHT22;10808;48.010;11.326;2023-09-18T02:33:52;17.80;99.90
21298;DHT22;10808;48.010;11.326;2023-09-18T02:36:18;17.80;99.90
21298;DHT22;10808;48.010;11.326;2023-09-18T02:38:44;17.80;99.90
21298;DHT22;10808;48.010;11.326;2023-09-18T02:41:10;17.80;99.90
21298;DHT22;10808;48.010;11.326;2023-09-18T02:43:36;17.80;99.90
21298;DHT22;10808;48.010;11.326;2023-09-18T02:46:06;17.80;99.90
21298;DHT22;10808;48.010;11.326;2023-09-18T02:48:33;17.70;99.90
21298;DHT22;10808;48.010;11.326;2023-09-18T02:51:00;17.70;99.90
21298;DHT22;10808;48.010;11.326;2023-09-18T02:53:26;17.70;99.90
21298;DHT22;10808;48.010;11.326;2023-09-18T02:55:54;17.70;99.90
21298;DHT22;10808;48.010;11.326;2023-09-18T02:58:22;17.70;99.90
21298;DHT22;10808;48.010;11.326;2023-09-18T03:00:52;17.70;99.90
21298;DHT22;10808;48.010;11.326;2023-09-18T03:03:19;17.70;99.90
21298;DHT22;10808;48.010;11.326;2023-09-18T03:05:45;17.60;99.90
21298;DHT22;10808;48.010;11.326;2023-09-18T03:08:13;17.60;99.90
21298;DHT22;10808;48.010;11.326;2023-09-18T03:10:41;17.60;99.90
21298;DHT22;10808;48.010;11.326;2023-09-18T03:13:08;17.60;99.90
21298;DHT22;10808;48.010;11.326;2023-09-18T03:15:35;17.50;99.90
21298;DHT22;10808;48.010;11.326;2023-09-18T03:18:03;17.60;99.90
21298;DHT22;10808;48.010;11.326;2023-09-18T03:20:30;17.60;99.90
21298;DHT22;10808;48.010;11.326;2023-09-18T03:22:58;17.50;99.90
21298;DHT22;10808;48.010;11.326;2023-09-18T03:25:24;17.60;99.90
21298;DHT22;10808;48.010;11.326;2023-09-18T03:27:52;17.50;99.90
21298;DHT22;10808;48.010;11.326;2023-09-18T03:30:19;17.50;99.90
21298;DHT22;10808;48.010;11.326;2023-09-18T03:32:45;17.50;99.90
21298;DHT22;10808;48.010;11.326;2023-09-18T03:35:17;17.50;99.90
21298;DHT22;10808;48.010;11.326;2023-09-18T03:37:44;17.50;99.90
21298;DHT22;10808;48.010;11.326;2023-09-18T03:40:10;17.40;99.90
21298;DHT22;10808;48.010;11.326;2023-09-18T03:42:36;17.40;99.90
21298;DHT22;10808;48.010;11.326;2023-09-18T03:45:02;17.40;99.90
21298;DHT22;10808;48.010;11.326;2023-09-18T03:47:29;17.40;99.90
21298;DHT22;10808;48.010;11.326;2023-09-18T03:49:55;17.30;99.90
21298;DHT22;10808;48.010;11.326;2023-09-18T03:52:21;17.30;99.90
21298;DHT22;10808;48.010;11.326;2023-09-18T03:54:48;17.30;99.90
21298;DHT22;10808;48.010;11.326;2023-09-18T03:57:14;17.30;99.90
21298;DHT22;10808;48.010;11.326;2023-09-18T03:59:41;17.30;99.90
21298;DHT22;10808;48.010;11.326;2023-09-18T04:02:07;17.30;99.90
21298;DHT22;10808;48.010;11.326;2023-09-18T04:04:33;17.30;99.90
21298;DHT22;10808;48.010;11.326;2023-09-18T04:06:59;17.30;99.90
21298;DHT22;10808;48.010;11.326;2023-09-18T04:09:25;17.20;99.90
21298;DHT22;10808;48.010;11.326;2023-09-18T04:11:51;17.20;99.90
21298;DHT22;10808;48.010;11.326;2023-09-18T04:14:18;17.20;99.90
21298;DHT22;10808;48.010;11.326;2023-09-18T04:16:44;17.20;99.90
21298;DHT22;10808;48.010;11.326;2023-09-18T04:19:10;17.20;99.90
21298;DHT22;10808;48.010;11.326;2023-09-18T04:21:37;17.20;99.90
21298;DHT22;10808;48.010;11.326;2023-09-18T04:24:03;17.10;99.90
21298;DHT22;10808;48.010;11.326;2023-09-18T04:26:30;17.10;99.90
21298;DHT22;10808;48.010;11.326;2023-09-18T04:28:57;17.10;99.90
21298;DHT22;10808;48.010;11.326;2023-09-18T04:31:23;17.10;99.90
21298;DHT22;10808;48.010;11.326;2023-09-18T04:33:49;17.10;99.90
21298;DHT22;10808;48.010;11.326;2023-09-18T04:36:16;17.10;99.90
21298;DHT22;10808;48.010;11.326;2023-09-18T04:38:44;17.10;99.90
21298;DHT22;10808;48.010;11.326;2023-09-18T04:41:10;17.10;99.90
21298;DHT22;10808;48.010;11.326;2023-09-18T04:43:37;17.00;99.90
21298;DHT22;10808;48.010;11.326;2023-09-18T04:46:06;17.10;99.90
21298;DHT22;10808;48.010;11.326;2023-09-18T04:48:34;17.10;99.90
21298;DHT22;10808;48.010;11.326;2023-09-18T04:51:00;17.10;99.90
21298;DHT22;10808;48.010;11.326;2023-09-18T04:53:30;17.00;99.90
21298;DHT22;10808;48.010;11.326;2023-09-18T04:55:56;17.10;99.90
21298;DHT22;10808;48.010;11.326;2023-09-18T04:58:22;17.10;99.90
21298;DHT22;10808;48.010;11.326;2023-09-18T05:00:57;17.10;99.90
21298;DHT22;10808;48.010;11.326;2023-09-18T05:03:24;17.10;99.90
21298;DHT22;10808;48.010;11.326;2023-09-18T05:05:51;17.00;99.90
21298;DHT22;10808;48.010;11.326;2023-09-18T05:08:17;17.00;99.90
21298;DHT22;10808;48.010;11.326;2023-09-18T05:10:43;17.00;99.90
21298;DHT22;10808;48.010;11.326;2023-09-18T05:13:12;17.10;99.90
21298;DHT22;10808;48.010;11.326;2023-09-18T05:15:38;17.00;99.90
21298;DHT22;10808;48.010;11.326;2023-09-18T05:18:04;17.10;99.90
21298;DHT22;10808;48.010;11.326;2023-09-18T05:20:31;17.10;99.90
21298;DHT22;10808;48.010;11.326;2023-09-18T05:22:58;17.10;99.90
21298;DHT22;10808;48.010;11.326;2023-09-18T05:25:26;17.00;99.90
21298;DHT22;10808;48.010;11.326;2023-09-18T05:27:53;17.10;99.90
21298;DHT22;10808;48.010;11.326;2023-09-18T05:30:28;17.20;99.90
21298;DHT22;10808;48.010;11.326;2023-09-18T05:32:55;17.20;99.90
21298;DHT22;10808;48.010;11.326;2023-09-18T05:35:21;17.20;99.90
21298;DHT22;10808;48.010;11.326;2023-09-18T05:37:52;17.20;99.90
21298;DHT22;10808;48.010;11.326;2023-09-18T05:40:20;17.30;99.90
21298;DHT22;10808;48.010;11.326;2023-09-18T05:42:46;17.30;99.90
21298;DHT22;10808;48.010;11.326;2023-09-18T05:45:14;17.40;99.90
21298;DHT22;10808;48.010;11.326;2023-09-18T05:47:43;17.40;99.90
21298;DHT22;10808;48.010;11.326;2023-09-18T05:50:10;17.40;99.90
21298;DHT22;10808;48.010;11.326;2023-09-18T05:52:41;17.50;99.90
21298;DHT22;10808;48.010;11.326;2023-09-18T05:55:07;17.60;99.90
21298;DHT22;10808;48.010;11.326;2023-09-18T05:57:34;17.60;99.90
21298;DHT22;10808;48.010;11.326;2023-09-18T06:00:00;17.70;99.90
21298;DHT22;10808;48.010;11.326;2023-09-18T06:02:26;17.80;99.90
21298;DHT22;10808;48.010;11.326;2023-09-18T06:04:56;17.80;99.90
21298;DHT22;10808;48.010;11.326;2023-09-18T06:07:29;17.90;99.90
21298;DHT22;10808;48.010;11.326;2023-09-18T06:09:57;18.00;99.90
21298;DHT22;10808;48.010;11.326;2023-09-18T06:12:24;18.00;99.90
21298;DHT22;10808;48.010;11.326;2023-09-18T06:14:51;18.10;99.90
21298;DHT22;10808;48.010;11.326;2023-09-18T06:17:18;18.20;99.90
21298;DHT22;10808;48.010;11.326;2023-09-18T06:19:45;18.30;99.90
21298;DHT22;10808;48.010;11.326;2023-09-18T06:22:13;18.40;99.90
21298;DHT22;10808;48.010;11.326;2023-09-18T06:24:39;18.50;99.90
21298;DHT22;10808;48.010;11.326;2023-09-18T06:27:06;18.50;99.90
21298;DHT22;10808;48.010;11.326;2023-09-18T06:29:33;18.60;99.90
21298;DHT22;10808;48.010;11.326;2023-09-18T06:31:59;18.70;99.90
21298;DHT22;10808;48.010;11.326;2023-09-18T06:34:26;18.90;99.90
21298;DHT22;10808;48.010;11.326;2023-09-18T06:36:52;18.90;99.90
21298;DHT22;10808;48.010;11.326;2023-09-18T06:39:19;19.00;99.90
21298;DHT22;10808;48.010;11.326;2023-09-18T06:41:46;19.00;99.90
21298;DHT22;10808;48.010;11.326;2023-09-18T06:44:12;19.10;99.90
21298;DHT22;10808;48.010;11.326;2023-09-18T06:46:38;19.10;99.90
21298;DHT22;10808;48.010;11.326;2023-09-18T06:49:05;19.20;99.90
21298;DHT22;10808;48.010;11.326;2023-09-18T06:51:31;19.20;99.90
21298;DHT22;10808;48.010;11.326;2023-09-18T06:53:58;19.30;99.90
21298;DHT22;10808;48.010;11.326;2023-09-18T06:56:24;19.30;99.90
21298;DHT22;10808;48.010;11.326;2023-09-18T06:58:51;19.50;99.90
21298;DHT22;10808;48.010;11.326;2023-09-18T07:01:21;19.60;99.90
21298;DHT22;10808;48.010;11.326;2023-09-18T07:03:48;19.70;99.90
21298;DHT22;10808;48.010;11.326;2023-09-18T07:06:14;19.90;99.90
21298;DHT22;10808;48.010;11.326;2023-09-18T07:08:47;20.00;99.90
21298;DHT22;10808;48.010;11.326;2023-09-18T07:11:16;20.30;99.90
21298;DHT22;10808;48.010;11.326;2023-09-18T07:13:42;20.50;99.90
21298;DHT22;10808;48.010;11.326;2023-09-18T07:16:09;20.70;99.90
21298;DHT22;10808;48.010;11.326;2023-09-18T07:18:35;20.90;99.90
21298;DHT22;10808;48.010;11.326;2023-09-18T07:21:01;21.10;99.90
21298;DHT22;10808;48.010;11.326;2023-09-18T07:23:27;21.20;99.90
21298;DHT22;10808;48.010;11.326;2023-09-18T07:25:55;21.40;99.90
21298;DHT22;10808;48.010;11.326;2023-09-18T07:28:24;21.40;99.90
21298;DHT22;10808;48.010;11.326;2023-09-18T07:30:50;21.50;99.90
21298;DHT22;10808;48.010;11.326;2023-09-18T07:33:16;21.50;99.90
21298;DHT22;10808;48.010;11.326;2023-09-18T07:35:47;21.60;99.90
21298;DHT22;10808;48.010;11.326;2023-09-18T07:38:14;21.70;99.90
21298;DHT22;10808;48.010;11.326;2023-09-18T07:40:40;21.80;99.90
21298;DHT22;10808;48.010;11.326;2023-09-18T07:43:07;21.80;99.90
21298;DHT22;10808;48.010;11.326;2023-09-18T07:45:34;21.90;99.90
21298;DHT22;10808;48.010;11.326;2023-09-18T07:48:02;21.90;99.90
21298;DHT22;10808;48.010;11.326;2023-09-18T07:50:28;22.00;99.90
21298;DHT22;10808;48.010;11.326;2023-09-18T07:52:54;22.10;99.90
21298;DHT22;10808;48.010;11.326;2023-09-18T07:55:20;22.20;99.90
21298;DHT22;10808;48.010;11.326;2023-09-18T07:57:48;22.30;99.90
21298;DHT22;10808;48.010;11.326;2023-09-18T08:00:16;22.40;99.90
21298;DHT22;10808;48.010;11.326;2023-09-18T08:02:44;22.40;99.90
21298;DHT22;10808;48.010;11.326;2023-09-18T08:05:12;22.30;99.90
21298;DHT22;10808;48.010;11.326;2023-09-18T08:07:41;22.30;99.90
21298;DHT22;10808;48.010;11.326;2023-09-18T08:10:07;22.30;99.90
21298;DHT22;10808;48.010;11.326;2023-09-18T08:12:34;22.30;99.90
21298;DHT22;10808;48.010;11.326;2023-09-18T08:15:01;22.30;99.90
21298;DHT22;10808;48.010;11.326;2023-09-18T08:17:28;22.30;99.90
21298;DHT22;10808;48.010;11.326;2023-09-18T08:19:55;22.30;99.90
21298;DHT22;10808;48.010;11.326;2023-09-18T08:22:21;22.20;99.90
21298;DHT22;10808;48.010;11.326;2023-09-18T08:24:48;22.20;99.90
21298;DHT22;10808;48.010;11.326;2023-09-18T08:27:15;22.20;99.90
21298;DHT22;10808;48.010;11.326;2023-09-18T08:29:46;22.30;99.90
21298;DHT22;10808;48.010;11.326;2023-09-18T08:32:13;22.30;99.90
21298;DHT22;10808;48.010;11.326;2023-09-18T08:34:39;22.30;99.90
21298;DHT22;10808;48.010;11.326;2023-09-18T08:37:05;22.30;99.90
21298;DHT22;10808;48.010;11.326;2023-09-18T08:39:33;22.30;99.90
21298;DHT22;10808;48.010;11.326;2023-09-18T08:42:03;22.30;99.90
21298;DHT22;10808;48.010;11.326;2023-09-18T08:44:29;22.30;99.90
21298;DHT22;10808;48.010;11.326;2023-09-18T08:46:56;22.20;99.90
21298;DHT22;10808;48.010;11.326;2023-09-18T08:49:23;22.20;99.90
21298;DHT22;10808;48.010;11.326;2023-09-18T08:51:55;22.20;99.90
21298;DHT22;10808;48.010;11.326;2023-09-18T08:54:22;22.30;99.90
21298;DHT22;10808;48.010;11.326;2023-09-18T08:56:51;22.40;99.90
21298;DHT22;10808;48.010;11.326;2023-09-18T08:59:17;22.40;99.90
21298;DHT22;10808;48.010;11.326;2023-09-18T09:01:47;22.40;99.90
21298;DHT22;10808;48.010;11.326;2023-09-18T09:04:13;22.40;99.90
21298;DHT22;10808;48.010;11.326;2023-09-18T09:06:39;22.40;99.90
21298;DHT22;10808;48.010;11.326;2023-09-18T09:09:06;22.40;99.90
21298;DHT22;10808;48.010;11.326;2023-09-18T09:11:34;22.50;99.90
21298;DHT22;10808;48.010;11.326;2023-09-18T09:14:20;22.60;99.90
21298;DHT22;10808;48.010;11.326;2023-09-18T09:16:57;22.70;99.90
21298;DHT22;10808;48.010;11.326;2023-09-18T09:19:32;22.80;99.90
21298;DHT22;10808;48.010;11.326;2023-09-18T09:21:59;22.90;99.90
21298;DHT22;10808;48.010;11.326;2023-09-18T09:24:43;23.00;99.90
21298;DHT22;10808;48.010;11.326;2023-09-18T09:27:10;23.10;99.90
21298;DHT22;10808;48.010;11.326;2023-09-18T09:29:36;23.20;99.90
21298;DHT22;10808;48.010;11.326;2023-09-18T09:32:16;23.40;99.90
21298;DHT22;10808;48.010;11.326;2023-09-18T09:34:45;23.40;99.90
21298;DHT22;10808;48.010;11.326;2023-09-18T09:37:12;23.40;99.90
21298;DHT22;10808;48.010;11.326;2023-09-18T09:39:51;23.50;99.90
21298;DHT22;10808;48.010;11.326;2023-09-18T09:42:19;23.50;99.90
21298;DHT22;10808;48.010;11.326;2023-09-18T09:45:11;23.50;99.90
21298;DHT22;10808;48.010;11.326;2023-09-18T09:47:38;23.60;99.90
21298;DHT22;10808;48.010;11.326;2023-09-18T09:50:09;23.70;99.90
21298;DHT22;10808;48.010;11.326;2023-09-18T09:52:40;23.70;99.90
21298;DHT22;10808;48.010;11.326;2023-09-18T09:55:18;23.70;99.90
21298;DHT22;10808;48.010;11.326;2023-09-18T09:58:01;23.80;99.90
21298;DHT22;10808;48.010;11.326;2023-09-18T10:00:49;24.00;99.90
21298;DHT22;10808;48.010;11.326;2023-09-18T10:03:23;24.10;99.90
21298;DHT22;10808;48.010;11.326;2023-09-18T10:05:51;24.20;99.90
21298;DHT22;10808;48.010;11.326;2023-09-18T10:08:22;24.30;99.90
21298;DHT22;10808;48.010;11.326;2023-09-18T10:10:53;24.40;99.90
21298;DHT22;10808;48.010;11.326;2023-09-18T10:13:24;24.40;99.90
21298;DHT22;10808;48.010;11.326;2023-09-18T10:15:52;24.40;99.90
21298;DHT22;10808;48.010;11.326;2023-09-18T10:21:12;24.40;99.90
21298;DHT22;10808;48.010;11.326;2023-09-18T10:26:37;24.40;99.90
21298;DHT22;10808;48.010;11.326;2023-09-18T10:29:11;24.40;99.90
21298;DHT22;10808;48.010;11.326;2023-09-18T10:31:39;24.40;99.90
21298;DHT22;10808;48.010;11.326;2023-09-18T10:34:08;24.30;99.90
21298;DHT22;10808;48.010;11.326;2023-09-18T10:36:36;24.30;99.90
21298;DHT22;10808;48.010;11.326;2023-09-18T10:39:03;24.30;99.90
21298;DHT22;10808;48.010;11.326;2023-09-18T10:41:34;24.30;99.90
21298;DHT22;10808;48.010;11.326;2023-09-18T10:44:01;24.30;99.90
21298;DHT22;10808;48.010;11.326;2023-09-18T10:46:30;24.40;99.90
21298;DHT22;10808;48.010;11.326;2023-09-18T10:48:59;24.30;99.90
21298;DHT22;10808;48.010;11.326;2023-09-18T10:51:26;24.30;99.90
21298;DHT22;10808;48.010;11.326;2023-09-18T10:53:52;24.30;99.90
21298;DHT22;10808;48.010;11.326;2023-09-18T10:56:21;24.20;99.90
21298;DHT22;10808;48.010;11.326;2023-09-18T10:58:58;24.10;99.90
21298;DHT22;10808;48.010;11.326;2023-09-18T11:01:24;24.00;99.90
21298;DHT22;10808;48.010;11.326;2023-09-18T11:03:56;23.80;99.90
21298;DHT22;10808;48.010;11.326;2023-09-18T11:06:23;23.70;99.90
21298;DHT22;10808;48.010;11.326;2023-09-18T11:08:59;23.50;99.90
21298;DHT22;10808;48.010;11.326;2023-09-18T11:11:30;23.40;99.90
21298;DHT22;10808;48.010;11.326;2023-09-18T11:13:59;23.30;99.90
21298;DHT22;10808;48.010;11.326;2023-09-18T11:21:28;22.90;99.90
21298;DHT22;10808;48.010;11.326;2023-09-18T11:24:15;22.80;99.90
21298;DHT22;10808;48.010;11.326;2023-09-18T11:26:45;22.70;99.90
21298;DHT22;10808;48.010;11.326;2023-09-18T11:29:17;22.60;99.90
21298;DHT22;10808;48.010;11.326;2023-09-18T11:34:20;22.30;99.90
21298;DHT22;10808;48.010;11.326;2023-09-18T11:36:46;22.20;99.90
21298;DHT22;10808;48.010;11.326;2023-09-18T11:39:13;22.00;99.90
21298;DHT22;10808;48.010;11.326;2023-09-18T11:41:39;21.80;99.90
21298;DHT22;10808;48.010;11.326;2023-09-18T11:46:33;21.60;99.90
21298;DHT22;10808;48.010;11.326;2023-09-18T11:48:59;21.40;99.90
21298;DHT22;10808;48.010;11.326;2023-09-18T11:51:25;21.30;99.90
21298;DHT22;10808;48.010;11.326;2023-09-18T11:53:54;21.20;99.90
21298;DHT22;10808;48.010;11.326;2023-09-18T11:56:21;21.00;99.90
21298;DHT22;10808;48.010;11.326;2023-09-18T11:58:48;20.80;99.90
21298;DHT22;10808;48.010;11.326;2023-09-18T12:01:15;20.80;99.90
21298;DHT22;10808;48.010;11.326;2023-09-18T12:03:42;20.70;99.90
21298;DHT22;10808;48.010;11.326;2023-09-18T12:06:08;20.60;99.90
21298;DHT22;10808;48.010;11.326;2023-09-18T12:08:40;20.40;99.90
21298;DHT22;10808;48.010;11.326;2023-09-18T12:11:07;20.20;99.90
21298;DHT22;10808;48.010;11.326;2023-09-18T12:13:33;20.20;99.90
21298;DHT22;10808;48.010;11.326;2023-09-18T12:16:01;20.10;99.90
21298;DHT22;10808;48.010;11.326;2023-09-18T12:18:29;19.90;99.90
21298;DHT22;10808;48.010;11.326;2023-09-18T12:20:55;19.80;99.90
21298;DHT22;10808;48.010;11.326;2023-09-18T12:23:22;19.70;99.90
21298;DHT22;10808;48.010;11.326;2023-09-18T12:25:55;19.60;99.90
21298;DHT22;10808;48.010;11.326;2023-09-18T12:28:22;19.50;99.90
21298;DHT22;10808;48.010;11.326;2023-09-18T12:30:50;19.40;99.90
21298;DHT22;10808;48.010;11.326;2023-09-18T12:33:18;19.30;99.90
21298;DHT22;10808;48.010;11.326;2023-09-18T12:35:46;19.30;99.90
21298;DHT22;10808;48.010;11.326;2023-09-18T12:38:18;19.30;99.90
21298;DHT22;10808;48.010;11.326;2023-09-18T12:40:53;19.40;99.90
21298;DHT22;10808;48.010;11.326;2023-09-18T12:43:22;19.40;99.90
21298;DHT22;10808;48.010;11.326;2023-09-18T12:45:49;19.40;99.90
21298;DHT22;10808;48.010;11.326;2023-09-18T12:48:16;19.40;99.90
21298;DHT22;10808;48.010;11.326;2023-09-18T12:50:42;19.30;99.90
21298;DHT22;10808;48.010;11.326;2023-09-18T12:53:09;19.40;99.90
21298;DHT22;10808;48.010;11.326;2023-09-18T12:55:35;19.40;99.90
21298;DHT22;10808;48.010;11.326;2023-09-18T12:58:01;19.30;99.90
21298;DHT22;10808;48.010;11.326;2023-09-18T13:00:31;19.30;99.90
21298;DHT22;10808;48.010;11.326;2023-09-18T13:02:58;19.30;99.90
21298;DHT22;10808;48.010;11.326;2023-09-18T13:05:25;19.30;99.90
21298;DHT22;10808;48.010;11.326;2023-09-18T13:07:53;19.40;99.90
21298;DHT22;10808;48.010;11.326;2023-09-18T13:10:20;19.40;99.90
21298;DHT22;10808;48.010;11.326;2023-09-18T13:12:49;19.50;99.90
21298;DHT22;10808;48.010;11.326;2023-09-18T13:15:26;19.50;99.90
21298;DHT22;10808;48.010;11.326;2023-09-18T13:17:53;19.70;99.90
21298;DHT22;10808;48.010;11.326;2023-09-18T13:20:28;19.70;99.90
21298;DHT22;10808;48.010;11.326;2023-09-18T13:22:57;19.70;99.90
21298;DHT22;10808;48.010;11.326;2023-09-18T13:25:25;19.70;99.90
21298;DHT22;10808;48.010;11.326;2023-09-18T13:27:53;19.70;99.90
21298;DHT22;10808;48.010;11.326;2023-09-18T13:30:20;19.80;99.90
21298;DHT22;10808;48.010;11.326;2023-09-18T13:32:49;19.80;99.90
21298;DHT22;10808;48.010;11.326;2023-09-18T13:35:16;19.90;99.90
21298;DHT22;10808;48.010;11.326;2023-09-18T13:37:43;19.80;99.90
21298;DHT22;10808;48.010;11.326;2023-09-18T13:40:11;19.80;99.90
21298;DHT22;10808;48.010;11.326;2023-09-18T13:42:39;19.90;99.90
21298;DHT22;10808;48.010;11.326;2023-09-18T13:45:06;20.00;99.90
21298;DHT22;10808;48.010;11.326;2023-09-18T13:47:33;20.10;99.90
21298;DHT22;10808;48.010;11.326;2023-09-18T13:50:00;20.20;99.90
21298;DHT22;10808;48.010;11.326;2023-09-18T13:52:27;20.30;99.90
21298;DHT22;10808;48.010;11.326;2023-09-18T13:54:53;20.40;99.90
21298;DHT22;10808;48.010;11.326;2023-09-18T13:57:21;20.50;99.90
21298;DHT22;10808;48.010;11.326;2023-09-18T13:59:49;20.60;99.90
21298;DHT22;10808;48.010;11.326;2023-09-18T14:02:17;20.70;99.90
21298;DHT22;10808;48.010;11.326;2023-09-18T14:04:50;20.70;99.90
21298;DHT22;10808;48.010;11.326;2023-09-18T14:07:16;20.80;99.90
21298;DHT22;10808;48.010;11.326;2023-09-18T14:09:42;20.90;99.90
21298;DHT22;10808;48.010;11.326;2023-09-18T14:12:08;21.00;99.90
21298;DHT22;10808;48.010;11.326;2023-09-18T14:14:35;21.00;99.90
21298;DHT22;10808;48.010;11.326;2023-09-18T14:17:04;21.10;99.90
21298;DHT22;10808;48.010;11.326;2023-09-18T14:19:30;21.20;99.90
21298;DHT22;10808;48.010;11.326;2023-09-18T14:21:56;21.20;99.90
21298;DHT22;10808;48.010;11.326;2023-09-18T14:24:22;21.30;99.90
21298;DHT22;10808;48.010;11.326;2023-09-18T14:26:52;21.20;99.90
21298;DHT22;10808;48.010;11.326;2023-09-18T14:29:18;21.40;99.90
21298;DHT22;10808;48.010;11.326;2023-09-18T14:31:44;21.40;99.90
21298;DHT22;10808;48.010;11.326;2023-09-18T14:34:10;21.40;99.90
21298;DHT22;10808;48.010;11.326;2023-09-18T14:36:36;21.40;99.90
21298;DHT22;10808;48.010;11.326;2023-09-18T14:39:04;21.30;99.90
21298;DHT22;10808;48.010;11.326;2023-09-18T14:41:30;21.30;99.90
21298;DHT22;10808;48.010;11.326;2023-09-18T14:43:57;21.20;99.90
21298;DHT22;10808;48.010;11.326;2023-09-18T14:46:25;21.20;99.90
21298;DHT22;10808;48.010;11.326;2023-09-18T14:48:51;21.20;99.90
21298;DHT22;10808;48.010;11.326;2023-09-18T14:51:17;21.30;99.90
21298;DHT22;10808;48.010;11.326;2023-09-18T14:53:44;21.20;99.90
21298;DHT22;10808;48.010;11.326;2023-09-18T14:56:10;21.10;99.90
21298;DHT22;10808;48.010;11.326;2023-09-18T14:58:36;21.00;99.90
21298;DHT22;10808;48.010;11.326;2023-09-18T15:01:02;21.00;99.90
21298;DHT22;10808;48.010;11.326;2023-09-18T15:03:28;21.00;99.90
21298;DHT22;10808;48.010;11.326;2023-09-18T15:05:54;21.00;99.90
21298;DHT22;10808;48.010;11.326;2023-09-18T15:08:21;20.90;99.90
21298;DHT22;10808;48.010;11.326;2023-09-18T15:10:47;20.80;99.90
21298;DHT22;10808;48.010;11.326;2023-09-18T15:13:13;20.80;99.90
21298;DHT22;10808;48.010;11.326;2023-09-18T15:15:41;20.70;99.90
21298;DHT22;10808;48.010;11.326;2023-09-18T15:18:08;20.70;99.90
21298;DHT22;10808;48.010;11.326;2023-09-18T15:20:37;20.70;99.90
21298;DHT22;10808;48.010;11.326;2023-09-18T15:23:07;20.70;99.90
21298;DHT22;10808;48.010;11.326;2023-09-18T15:25:33;20.60;99.90
21298;DHT22;10808;48.010;11.326;2023-09-18T15:28:04;20.50;99.90
21298;DHT22;10808;48.010;11.326;2023-09-18T15:30:34;20.50;99.90
21298;DHT22;10808;48.010;11.326;2023-09-18T15:33:02;20.50;99.90
21298;DHT22;10808;48.010;11.326;2023-09-18T15:35:28;20.50;99.90
21298;DHT22;10808;48.010;11.326;2023-09-18T15:38:00;20.40;99.90